Mirko Medici

Recruteur en chef - Altamura
3 Févr 2028
Jeudi
Processus

Personnalité

Adaptabilité (20) Ambition (13) Controverse (3) Loyauté (13) Pression (14) Professionnalisme (13) Sportivité (3) Tempérament (1)

Profil

Style d'entraînement Démocratique
Diplôme Continental B
Détermination 3
Gestion des joueurs 2
Motivation 3
Discipline 3
Satisfaction professionnelle
100%
Fatigue
0%
Rôle Recruteur en chef
Salaire 20.7K p/s
Contrat 14.03.2028

Performance

Comportement Bon
Efficacité de l'entraînement
29%
Développement des joueurs
20%
Prévention des blessures
35%
Mise en place tactique
35%

Événements récents

Négociation de contrat entamée maintenant
A participé à une réunion de recrutement maintenant
A recommandé une cible de transfert maintenant
A recommandé une cible de transfert maintenant
A participé à une réunion de recrutement maintenant
A participé à une réunion de recrutement maintenant
A participé à une réunion de recrutement maintenant
A évalué un joueur 7j

Suivi en cours

120
Joueur Club Statut Capacité Confiance Observé Dernière observation Dernier vote
Lorenzo Paratici Sampdoria Actif 87 / 90 69% 1 31.01.2028 Approuver
David Costas Oviedo Actif 139 / 136 40% 8 30.01.2028 -
Fernando Calero VfL Wolfsburg Actif 145 / 151 40% 5 30.01.2028 -
Achraf Dari Al Ahly Actif 122 / 106 40% 5 30.01.2028 -
Andoni Gorosabel Athletic Bilbao Actif 135 / 144 40% 9 29.01.2028 -
Marvin Friedrich Union Berlin Actif 135 / 133 40% 8 28.01.2028 -
Manolis Saliakas Olympiacos Actif 117 / 116 40% 3 25.01.2028 -
Axel Batista Quilmes Actif 121 / 128 40% 1 10.01.2028 -
Abdallah Warda Actif 93 / 93 66% 1 01.01.2028 Approuver
Francesco Scapoli Cesena Perdu 76 / 76 69% 1 01.01.2028 Approuver
Lautaro Gordillo Colegiales Actif 104 / 101 40% 2 31.08.2027 Plus d'infos
Cristian Rivas Bogota Actif 91 / 119 40% 1 30.08.2027 Plus d'infos
Enzo González Defensores Actif 109 / 106 40% 3 28.08.2027 -
Gonzalo Córdoba Mitre Actif 115 / 94 40% 1 28.08.2027 -
Lucas Pedraza Defensores Unidos Actif 107 / 105 40% 1 28.08.2027 -
Augusto Berrondo Tristán Suárez Actif 101 / 106 40% 1 28.08.2027 -
Alexis Domínguez Chacarita Juniors Actif 117 / 109 40% 3 26.08.2027 -
Gonzalo Berterame Morón Actif 105 / 93 40% 3 26.08.2027 -
Agustín Gallo Tristán Suárez Actif 125 / 94 40% 1 25.08.2027 -
Juan Cruz Franzoni Gimnasia y Esgrima Actif 98 / 109 40% 1 25.08.2027 -
Rodrigo Mosqueira Agropecuario Argentino Actif 97 / 105 40% 1 24.08.2027 -
Steven Alfred Torpedo-BelAZ Actif 96 / 117 40% 1 23.08.2027 -
Chinedu Onyinjekwu Bayelsa United Actif 96 / 104 40% 1 23.08.2027 -
Lorenzo De Leo Renate Actif 102 / 119 40% 2 20.08.2027 -
Sean Parker Lecco Actif 106 / 88 40% 2 20.08.2027 -
Michael De Marchi Pergolettese Actif 104 / 117 40% 5 19.08.2027 -
Facundo Castro Nueva Chicago Actif 99 / 133 40% 1 19.08.2027 -
Gianluca Caprari Padova Actif 128 / 135 40% 1 19.08.2027 -
Alberto Spagnoli Union Brescia Actif 104 / 100 40% 7 18.08.2027 -
Ezekiel Edidiong Enyimba Actif 91 / 98 40% 1 18.08.2027 -
Tomás Bolzicco Chaco For Ever Actif 96 / 104 40% 1 18.08.2027 -
Manuele Malotti Livorno Actif 109 / 101 40% 6 16.08.2027 -
Thomas Alberti Cavese Actif 103 / 93 40% 1 16.08.2027 -
Michele Emmausso Cosenza Actif 108 / 96 40% 1 16.08.2027 -
Leonardo Morosini Carpi Actif 91 / 100 40% 3 14.08.2027 -
Lisandro Cabrera Maipú Actif 107 / 114 40% 1 14.08.2027 -
Marco Bertoli Ospitaletto Actif 96 / 103 40% 1 12.08.2027 -
Simone Saporetti Novara Actif 100 / 90 40% 1 12.08.2027 -
Kevin Lasagna Padova Actif 115 / 108 40% 1 10.08.2027 -
Claudio Morra Vicenza Actif 112 / 127 40% 3 09.08.2027 -
Cheickna Samaké Djoliba Actif 113 / 107 40% 4 09.08.2027 -
Ronan Curtis Plymouth Argyle Actif 105 / 115 40% 2 07.08.2027 -
Luigi Samele Giana Erminio Actif 85 / 84 40% 1 07.08.2027 -
Giuseppe Panico Foggia Actif 114 / 127 40% 1 07.08.2027 -
Kane Drummond Oldham Athletic Actif 96 / 104 40% 2 06.08.2027 -
Federico Ricci Sorrento Actif 102 / 90 40% 1 06.08.2027 -
Beryly Lubala Vicenza Actif 95 / 97 40% 1 05.08.2027 -
Giacomo Parigi Latina Actif 103 / 114 40% 3 04.08.2027 -
Léo Abreu Picerno Actif 106 / 114 40% 2 04.08.2027 -
Hachim Mastour Virtus Verona Actif 76 / 76 40% 1 04.08.2027 -
Banfa Diakité Campobasso Actif 98 / 100 40% 3 02.08.2027 -
Alexis Ferrante Ternana Actif 99 / 101 40% 6 02.08.2027 -
Leonardo Mancuso Mantova Actif 125 / 106 40% 2 02.08.2027 -
Gregorio Morachioli Juve Stabia Actif 105 / 100 40% 1 02.08.2027 -
Gianmarco Vannucchi Benevento Actif 125 / 124 40% 3 01.08.2027 -
Álvaro Montero Boca Juniors Actif 137 / 118 40% 2 31.07.2027 -
Miguel Celis Estudiantes de Merida Actif 103 / 78 40% 1 29.07.2027 -
Gavin Vlijter Giana Erminio Actif 104 / 98 40% 3 28.07.2027 -
Nicola Dalmonte Trento Actif 116 / 97 40% 1 28.07.2027 -
Alao Dabani Plateau United Actif 86 / 94 40% 2 27.07.2027 -
Destiny Efosa Egharevba Picerno Actif 114 / 98 40% 3 25.07.2027 -
Gabriele Bernardotto Monopoli Actif 107 / 111 40% 1 23.07.2027 -
Mykyta Turbaievskyi Zorya Actif 122 / 140 40% 1 23.07.2027 -
Nikita Contini Cagliari Actif 120 / 100 40% 2 22.07.2027 -
Harvey Saunders Tranmere Rovers Actif 91 / 93 40% 1 22.07.2027 -
Luca Fabrizi Pianese Actif 102 / 108 40% 3 20.07.2027 -
Leonardo Marson Gubbio Actif 114 / 106 40% 1 20.07.2027 -
Balša Popović Olympiacos Actif 119 / 133 40% 1 20.07.2027 -
Robert Murić Floriana Actif 98 / 98 40% 1 18.07.2027 -
Tommaso Nobile Renate Actif 120 / 126 40% 1 17.07.2027 -
Sheldon Dinesh Stockport County Actif 96 / 118 40% 4 16.07.2027 -
Daniel Prieto Alianza Atletico Actif 124 / 114 40% 1 16.07.2027 -
David Karaev KAMAZ Actif 89 / 103 40% 1 15.07.2027 -
Alejandro Melo Temperley Actif 117 / 110 40% 1 15.07.2027 -
Jesús Camargo Deportivo Tachira Actif 119 / 110 40% 2 14.07.2027 -
Aldair Ramírez Chernomorets Actif 112 / 112 40% 1 14.07.2027 -
Lorenzo Andrenacci Lumezzane Actif 104 / 122 40% 1 14.07.2027 -
Axel Werner Elche Actif 116 / 122 40% 1 13.07.2027 -
Nicola Nanni Arzignano Actif 95 / 105 40% 2 11.07.2027 -
Emilio Di Fulvio Colegiales Actif 109 / 99 40% 2 10.07.2027 -
Daniele Sorrentino Torres Actif 112 / 101 40% 2 09.07.2027 -
Jack Vale Pro Vercelli Actif 106 / 80 40% 1 09.07.2027 -
Matías Borgogno San Martín SJ Actif 135 / 124 40% 1 09.07.2027 -
Jacobo Alcalde SKA Khabarovsk Actif 100 / 105 40% 2 07.07.2027 -
Marco Da Graca Novara Actif 101 / 113 40% 1 04.07.2027 -
Leonardo Bellini Pianese Actif 89 / 104 40% 1 03.07.2027 -
Facundo Altamirano San Lorenzo Actif 111 / 135 40% 2 01.07.2027 -
Denys Ihnatenko Nacional Actif 102 / 99 40% 2 30.06.2027 -
Anton Mitryushkin Lokomotiv Moscow Actif 133 / 130 40% 1 30.06.2027 -
Misael Tarón Ferro Carril Oeste Actif 129 / 113 40% 1 30.06.2027 -
Ilja Zhigulev Chernomorets Actif 112 / 103 40% 1 30.06.2027 -
Michael Fabbro Virtus Verona Actif 89 / 82 40% 1 29.06.2027 -
Filippo Costa Vicenza Actif 126 / 128 40% 1 28.06.2027 -
Franklin Sasere Birkirkara Actif 87 / 107 40% 1 25.06.2027 -
Leon Sabua Neftekhimik Actif 113 / 117 40% 1 23.06.2027 -
Francesco Benassai Trento Actif 95 / 117 40% 1 20.06.2027 -
Luciano Recalde Quilmes Actif 110 / 117 40% 1 20.06.2027 -
Gianluca D'Auria Potenza Actif 94 / 94 40% 2 17.06.2027 -
Tiago Casasola Union Brescia Actif 109 / 110 40% 2 17.06.2027 -
José Álvarez Arsenal Tula Actif 104 / 116 40% 1 17.06.2027 -
Bruno Gomes Valletta Actif 108 / 107 40% 1 17.06.2027 -
Franco Malagueño Colegiales Actif 117 / 130 40% 1 15.06.2027 -
Vladislav Kamilov Ufa Actif 92 / 111 40% 1 15.06.2027 -
Sulayman Jallow Vis Pesaro Actif 86 / 92 40% 1 14.06.2027 -
Mattia Mannini Juve Stabia Actif 117 / 121 40% 1 14.06.2027 -
Patrick Schmidt Tarxien Rainbows Actif 107 / 101 40% 1 11.06.2027 -
Malick Traoré Onze Createurs Actif 104 / 96 40% 1 09.06.2027 -
Stanislav Biblyk Chaika Actif 94 / 84 40% 1 07.06.2027 -
Francesco D'Alterio Ternana Actif 116 / 98 40% 2 30.01.2027 -
Vitaly Gudiev Akron Actif 121 / 123 40% 3 29.01.2027 -
Matteo Sorzi Carpi Actif 114 / 112 40% 1 29.01.2027 -
Matteo Rizzo Campobasso Actif 108 / 115 40% 1 28.01.2027 -
Felix Kyei Medeama Actif 85 / 82 40% 1 28.01.2027 -
Anatoli Gospodinov Arda Actif 107 / 108 40% 1 27.01.2027 -
Thulani Erasmus Ajax Cape Town Actif 122 / 103 40% 1 27.01.2027 -
Pedro Rocha Juventude Actif 117 / 128 40% 1 23.01.2027 -
Daniele Sommariva Arzignano Actif 102 / 109 40% 1 21.01.2027 -
Thakasani Mbanjwa Golden Arrows Actif 110 / 79 40% 1 19.01.2027 -
Kolawole Oladipo New Edubiase United Actif 81 / 77 40% 1 17.01.2027 -
Matteo Cardinali Hibernians Actif 95 / 90 40% 1 16.01.2027 -